Portada
METAR-TAF:

METAR-TAF

Aeropuertos :

Túnez, Túnez

Aeropuerto Internacional de Túnez-Cartago

latitud: 36-50N, longitud: 010-14E, altitud: 3 m

Observación

El informe se hizo hace 1 hora y 14 minutos, a las 23:00 UTC
Viento calma
Temperatura 20°C
Humedad 78%
Presión 1019 hPa
Visibilidad 10 km o más
Escasas nubes a una altura de 2600 ft

METAR: DTTA 252300Z 00000KT 9999 FEW026 20/16 Q1019 NOSIG

Hora: 01:14 (00:14 UTC)

Pronóstico

El informe se hizo hace 1 hora y 14 minutos, a las 23:00 UTC
Pronóstico válido del 26 a las 00 UTC al 26 a las 24 UTC
Viento 3 kt con dirección variable
Visibilidad 10 km o más
Escasas nubes a una altura de 2000 ft
Evolucionando progresivamente
del 26 a las 09 UTC al 26 a las 11 UTC
Viento 12 kt del noreste
Evolucionando progresivamente
del 26 a las 18 UTC al 26 a las 20 UTC
Viento 12 kt del sur

TAF: DTTA 252300Z 2600/2624 VRB03KT 9999 FEW020 BECMG 2609/2611 05012KT BECMG 2618/2620 18012KT

Observaciones y pronósticos meteorológicos de más de 4000 aeropuertos (mensajes METAR y TAF).

Los puntos amarillos y rojos representan las estaciones disponibles.

Ponga el ratón en el punto deseado para ver el nombre de la estación.

Haga clic para ver las observaciones y los pronósticos meteorológicos.

Para cambiar el mapa : haga clic en los botones verdes con una cruz de color negro para hacer un zoom, en el botón verde con un guión para alejar o en las flechas verdes para mapas adyacentes.


METAR-TAF: